首页
METAR-TAF:

METAR-TAF

机场 :

德累斯顿机场

德累斯顿, 德国

纬度: 51-08N, 经度: 013-45E, 海拔: 230米

当前天气观测

该预报发布于10分钟前的21:50 UTC
风速5节,风向北转东北
温度 2°C
湿度 87%
气压 999 hPa
能见度10公里或以上
散云层高于2100英尺
阴天层高于3400英尺
小雪, 雨

METAR: EDDC 272150Z 02005KT 9999 -SNRA SCT021 OVC034 02/M00 Q0999

时间: 23:00 (22:00 UTC)

预报

该预报发布于5小时和0分钟前的17:00 UTC
预报有效从27日的 18点(UTC)到 28日的 18点(UTC)
风速3节,风向多变
能见度10公里或以上
1500米以下无云,无积雨云
成为
从 27日的 20点(UTC)到 27日的 24点(UTC)
风速8节,风向西转西北
多云层高于800英尺
几率 40% :
短暂存在
从 27日的 23点(UTC)到 28日的 09点(UTC)
能見度: 1400
多云层高于300英尺
成为
从 28日的 09点(UTC)到 28日的 12点(UTC)
风速13节,风向西
多云层高于1500英尺
短暂存在
从 28日的 10点(UTC)到 28日的 15点(UTC)
风速15节,风向西,有时为25节阵风
成为
从 28日的 15点(UTC)到 28日的 18点(UTC)
风速8节,风向西转西南

TAF: EDDC 271700Z 2718/2818 VRB03KT CAVOK BECMG 2720/2724 30008KT BKN008 PROB40 TEMPO 2723/2809 1400 SN BKN003 BECMG 2809/2812 27013KT BKN015 TEMPO 2810/2815 27015G25KT BECMG 2815/2818 24008KT

超过4000个机场的气象观测和天气预报(METAR&TAF报告)。

可查询的气象台以黄色和红色小点在地图上表示。

将鼠标移到小点上方,可查看气象台名称。

然后点击查看天气观测和预报。

如需切换地图:点击带黑十字的绿色按钮放大地图;点击带横线的绿色按钮缩小地图;或者点击绿色箭头查看邻近地区的地图。


METAR-TAF: